createdAt,value
2023-05-02T00:02:17.656Z,88.56
2023-05-02T00:04:44.776Z,89.54
2023-05-02T00:07:11.948Z,89.86
2023-05-02T00:09:38.844Z,89.89
2023-05-02T00:12:05.868Z,90.71
2023-05-02T00:14:32.991Z,90.66
2023-05-02T00:16:59.794Z,90.81
2023-05-02T00:19:26.657Z,90.89
2023-05-02T00:21:53.377Z,90.86
2023-05-02T00:24:20.126Z,90.82
2023-05-02T00:26:46.922Z,90.55
2023-05-02T00:29:13.822Z,91.27
2023-05-02T00:31:41.326Z,90.27
2023-05-02T00:34:08.253Z,91.85
2023-05-02T00:36:35.018Z,92.50
2023-05-02T00:39:01.855Z,92.55
2023-05-02T00:41:28.630Z,92.71
2023-05-02T00:43:55.441Z,94.04
2023-05-02T00:46:22.318Z,94.28
2023-05-02T00:48:49.111Z,94.49
2023-05-02T00:51:15.788Z,94.32
2023-05-02T00:53:42.756Z,94.53
2023-05-02T00:56:12.329Z,94.97
2023-05-02T00:58:41.224Z,95.30
2023-05-02T01:01:20.134Z,95.40
2023-05-02T01:03:49.899Z,95.54
2023-05-02T01:06:40.466Z,96.13
2023-05-02T01:09:26.316Z,95.98
2023-05-02T01:12:25.489Z,96.48
2023-05-02T01:14:55.264Z,96.42
2023-05-02T01:17:26.407Z,96.81
2023-05-02T01:19:58.620Z,97.22
2023-05-02T01:22:30.163Z,97.84
2023-05-02T01:25:21.382Z,98.23
2023-05-02T01:28:16.488Z,99.61
2023-05-02T01:30:46.662Z,99.64
2023-05-02T01:33:17.571Z,99.84
2023-05-02T01:35:46.480Z,100.64
2023-05-02T01:38:18.943Z,101.09
2023-05-02T01:40:47.055Z,101.12
2023-05-02T01:43:15.365Z,101.64
2023-05-02T01:45:45.397Z,101.46
2023-05-02T01:48:13.748Z,101.97
2023-05-02T01:50:43.977Z,101.72
2023-05-02T01:53:13.798Z,102.31
2023-05-02T01:55:44.604Z,102.47
2023-05-02T01:58:12.308Z,102.72
2023-05-02T02:00:39.836Z,102.60
2023-05-02T02:03:08.381Z,102.71
2023-05-02T02:05:37.067Z,102.67
2023-05-02T02:08:04.135Z,103.21
2023-05-02T02:10:40.383Z,102.96
2023-05-02T02:13:26.443Z,103.34
2023-05-02T02:16:01.135Z,104.14
2023-05-02T02:18:29.737Z,105.93
2023-05-02T02:20:59.297Z,106.49
2023-05-02T02:23:28.159Z,106.50
2023-05-02T02:25:56.477Z,106.56
2023-05-02T02:28:23.632Z,106.83
2023-05-02T02:30:50.787Z,107.04
2023-05-02T02:33:18.438Z,106.87
2023-05-02T02:35:52.744Z,107.64
2023-05-02T02:38:42.819Z,107.16
2023-05-02T02:41:15.415Z,106.86
2023-05-02T02:44:04.205Z,106.62
2023-05-02T02:46:51.291Z,105.90
2023-05-02T02:50:02.722Z,106.18
2023-05-02T02:53:09.335Z,105.90
2023-05-02T02:55:44.996Z,106.10
2023-05-02T02:58:14.590Z,105.98
2023-05-02T03:00:41.616Z,106.21
2023-05-02T03:03:09.685Z,106.27
2023-05-02T03:05:36.839Z,106.76
2023-05-02T03:08:03.722Z,107.36
2023-05-02T03:10:30.502Z,107.09
2023-05-02T03:12:57.310Z,108.01
2023-05-02T03:15:52.557Z,108.64
2023-05-02T03:18:19.544Z,109.61
2023-05-02T03:20:46.842Z,110.74
2023-05-02T03:23:13.617Z,110.84
2023-05-02T03:25:40.392Z,111.16
2023-05-02T03:28:07.115Z,111.92
2023-05-02T03:30:34.272Z,112.30
2023-05-02T03:33:01.838Z,112.86
2023-05-02T03:35:28.569Z,112.91
2023-05-02T03:37:55.233Z,114.17
2023-05-02T03:40:22.143Z,115.24
2023-05-02T03:42:48.934Z,113.19
2023-05-02T03:45:15.748Z,112.71
2023-05-02T03:47:42.526Z,112.37
2023-05-02T03:50:09.694Z,111.13
2023-05-02T03:52:36.524Z,111.90
2023-05-02T03:55:04.116Z,110.59
2023-05-02T03:57:30.903Z,110.89
2023-05-02T03:59:57.991Z,109.50
2023-05-02T04:02:25.462Z,109.31
2023-05-02T04:04:52.447Z,108.66
2023-05-02T04:07:19.744Z,109.20
2023-05-02T04:09:46.786Z,105.76
2023-05-02T04:12:15.812Z,104.87
2023-05-02T04:14:42.933Z,106.19
2023-05-02T04:17:09.804Z,104.59
2023-05-02T04:19:36.628Z,104.82
2023-05-02T04:22:03.653Z,102.85
2023-05-02T04:24:30.423Z,102.19
2023-05-02T04:26:57.134Z,101.64
2023-05-02T04:29:23.848Z,101.12
2023-05-02T04:31:51.700Z,100.35
2023-05-02T04:34:18.504Z,98.18
2023-05-02T04:36:45.882Z,96.67
2023-05-02T04:39:12.816Z,97.26
2023-05-02T04:41:39.576Z,97.45
2023-05-02T04:44:06.339Z,98.58
2023-05-02T04:46:33.101Z,98.98
2023-05-02T04:48:59.978Z,99.64
2023-05-02T04:51:27.970Z,98.52
2023-05-02T04:53:54.791Z,97.52
2023-05-02T04:56:21.987Z,97.69
2023-05-02T04:58:48.790Z,96.23
2023-05-02T05:01:15.545Z,95.01
2023-05-02T05:03:43.049Z,93.85
2023-05-02T05:06:09.902Z,94.64
2023-05-02T05:08:36.717Z,94.64
2023-05-02T05:11:05.203Z,94.65
2023-05-02T05:13:32.463Z,95.17
2023-05-02T05:15:59.256Z,95.25
2023-05-02T05:18:26.303Z,96.17
2023-05-02T05:20:53.082Z,95.34
2023-05-02T05:23:19.924Z,95.14
2023-05-02T05:25:46.747Z,94.10
2023-05-02T05:28:13.953Z,93.53
2023-05-02T05:30:40.664Z,93.38
2023-05-02T05:33:07.454Z,92.17
2023-05-02T05:35:34.331Z,92.20
2023-05-02T05:38:01.487Z,91.56
2023-05-02T05:40:28.282Z,89.47
2023-05-02T05:42:55.077Z,89.54
2023-05-02T05:45:22.642Z,87.14
2023-05-02T05:47:49.736Z,84.81
2023-05-02T05:50:16.686Z,82.46
2023-05-02T05:52:43.380Z,81.19
2023-05-02T05:55:10.413Z,77.24
2023-05-02T05:57:37.593Z,77.86
2023-05-02T06:00:04.861Z,80.40
2023-05-02T06:02:31.820Z,76.45
2023-05-02T06:04:58.765Z,75.49
2023-05-02T06:07:25.720Z,74.50
2023-05-02T06:09:52.664Z,76.21
2023-05-02T06:12:19.566Z,76.31
2023-05-02T06:14:46.339Z,76.52
2023-05-02T06:17:13.117Z,74.22
2023-05-02T06:19:39.948Z,77.37
2023-05-02T06:22:06.698Z,78.11
2023-05-02T06:24:33.505Z,72.67
2023-05-02T06:27:00.359Z,71.13
2023-05-02T06:29:27.137Z,65.78
2023-05-02T06:31:57.018Z,62.53
2023-05-02T06:34:23.943Z,55.16
2023-05-02T06:36:56.444Z,51.49
2023-05-02T06:39:23.276Z,50.75
2023-05-02T06:41:50.363Z,57.02
2023-05-02T06:44:17.398Z,59.29
2023-05-02T06:46:44.310Z,65.72
2023-05-02T06:49:11.304Z,71.57
2023-05-02T06:51:38.112Z,68.42
2023-05-02T06:54:04.828Z,67.20
2023-05-02T06:56:31.737Z,62.53
2023-05-02T06:58:58.590Z,62.55
2023-05-02T07:01:25.517Z,57.46
2023-05-02T07:03:52.752Z,59.74
2023-05-02T07:06:19.614Z,63.99
2023-05-02T07:08:46.326Z,62.48
2023-05-02T07:11:13.188Z,61.78
2023-05-02T07:13:39.939Z,59.29
2023-05-02T07:16:07.588Z,63.89
2023-05-02T07:18:34.472Z,64.69
2023-05-02T07:21:01.478Z,62.38
2023-05-02T07:23:28.386Z,63.21
2023-05-02T07:25:55.288Z,63.76
2023-05-02T07:28:22.018Z,59.87
2023-05-02T07:30:48.882Z,60.58
2023-05-02T07:33:15.836Z,59.27
2023-05-02T07:35:43.212Z,59.95
2023-05-02T07:38:10.154Z,61.82
2023-05-02T07:40:36.947Z,61.95
2023-05-02T07:43:03.723Z,57.32
2023-05-02T07:45:30.561Z,57.77
2023-05-02T07:47:57.425Z,57.99
2023-05-02T07:50:24.520Z,60.23
2023-05-02T07:52:51.539Z,62.73
2023-05-02T07:55:18.542Z,62.26
2023-05-02T07:57:45.425Z,62.46
2023-05-02T08:00:12.667Z,62.48
2023-05-02T08:02:39.522Z,65.41
2023-05-02T08:05:06.978Z,64.05
2023-05-02T08:07:35.889Z,65.31
2023-05-02T08:10:03.827Z,64.69
2023-05-02T08:12:30.974Z,65.99
2023-05-02T08:14:57.781Z,65.20
2023-05-02T08:17:29.299Z,64.53
2023-05-02T08:19:56.891Z,65.65
2023-05-02T08:22:23.754Z,61.90
2023-05-02T08:24:50.700Z,57.91
2023-05-02T08:27:17.416Z,58.32
2023-05-02T08:29:44.188Z,59.29
2023-05-02T08:32:11.013Z,56.70
2023-05-02T08:34:37.868Z,56.55
2023-05-02T08:37:12.064Z,54.02
2023-05-02T08:39:38.919Z,57.19
2023-05-02T08:42:07.702Z,57.90
2023-05-02T08:44:34.481Z,58.81
2023-05-02T08:47:03.135Z,61.11
2023-05-02T08:49:32.965Z,56.64
2023-05-02T08:52:00.658Z,56.50
2023-05-02T08:54:27.867Z,56.10
2023-05-02T08:56:54.925Z,56.08
2023-05-02T08:59:21.738Z,55.29
2023-05-02T09:01:58.621Z,57.10
2023-05-02T09:04:33.226Z,56.64
2023-05-02T09:06:59.893Z,57.61
2023-05-02T09:09:26.960Z,55.31
2023-05-02T09:11:53.819Z,53.83
2023-05-02T09:14:20.757Z,52.62
2023-05-02T09:16:47.878Z,51.41
2023-05-02T09:19:27.578Z,51.62
2023-05-02T09:22:01.423Z,51.30
2023-05-02T09:24:29.619Z,51.13
2023-05-02T09:27:03.453Z,50.41
2023-05-02T09:29:36.179Z,50.73
2023-05-02T09:32:04.343Z,52.45
2023-05-02T09:34:31.572Z,49.41
2023-05-02T09:36:58.732Z,49.31
2023-05-02T09:39:27.046Z,50.27
2023-05-02T09:41:54.308Z,49.56
2023-05-02T09:44:38.030Z,49.89
2023-05-02T09:47:06.839Z,49.75
2023-05-02T09:49:45.155Z,48.52
2023-05-02T09:52:17.344Z,45.80
2023-05-02T09:54:46.884Z,44.16
2023-05-02T09:57:14.131Z,44.56
2023-05-02T09:59:41.303Z,47.02
2023-05-02T10:02:11.439Z,46.94
2023-05-02T10:04:40.018Z,49.54
2023-05-02T10:07:10.420Z,50.72
2023-05-02T10:09:42.740Z,51.40
2023-05-02T10:12:09.906Z,51.63
2023-05-02T10:14:40.167Z,53.02
2023-05-02T10:17:21.560Z,53.14
2023-05-02T10:19:59.256Z,53.39
2023-05-02T10:22:26.975Z,52.53
2023-05-02T10:24:53.936Z,52.78
2023-05-02T10:27:21.397Z,52.43
2023-05-02T10:29:51.440Z,50.40
2023-05-02T10:32:18.903Z,52.08
2023-05-02T10:34:47.551Z,52.65
2023-05-02T10:37:15.746Z,52.24
2023-05-02T10:39:42.548Z,51.88
2023-05-02T10:42:10.618Z,52.92
2023-05-02T10:44:39.768Z,52.68
2023-05-02T10:47:26.977Z,48.82
2023-05-02T10:49:59.995Z,48.77
2023-05-02T10:52:38.784Z,45.96
2023-05-02T10:55:25.469Z,46.57
2023-05-02T10:57:58.740Z,45.43
2023-05-02T11:00:27.298Z,45.38
2023-05-02T11:02:54.321Z,44.23
2023-05-02T11:05:23.281Z,45.31
2023-05-02T11:07:50.906Z,44.14
2023-05-02T11:10:17.706Z,44.58
2023-05-02T11:12:51.538Z,44.25
2023-05-02T11:15:38.421Z,44.15
2023-05-02T11:18:13.100Z,42.98
2023-05-02T11:20:41.794Z,44.32
2023-05-02T11:23:26.913Z,43.74
2023-05-02T11:26:00.398Z,42.71
2023-05-02T11:28:48.591Z,43.23
2023-05-02T11:31:27.727Z,40.91
2023-05-02T11:34:02.958Z,41.60
2023-05-02T11:36:30.877Z,40.13
2023-05-02T11:38:57.645Z,40.30
2023-05-02T11:41:39.251Z,38.95
2023-05-02T11:44:06.240Z,40.12
2023-05-02T11:46:33.738Z,39.66
2023-05-02T11:49:01.323Z,39.29
2023-05-02T11:51:28.096Z,38.91
2023-05-02T11:53:56.831Z,39.52
2023-05-02T11:56:24.817Z,39.97
2023-05-02T11:59:03.052Z,37.91
2023-05-02T12:01:30.281Z,40.79
2023-05-02T12:04:05.165Z,39.24
2023-05-02T12:06:32.264Z,38.92
2023-05-02T12:09:10.676Z,36.16
2023-05-02T12:11:38.549Z,37.10
2023-05-02T12:14:06.691Z,36.51
2023-05-02T12:16:33.998Z,36.37
2023-05-02T12:19:01.457Z,37.09
2023-05-02T12:21:30.155Z,34.35
2023-05-02T12:23:57.473Z,35.78
2023-05-02T12:26:29.414Z,36.26
2023-05-02T12:28:57.185Z,36.95
2023-05-02T12:31:24.251Z,34.57
2023-05-02T12:33:52.870Z,36.51
2023-05-02T12:36:19.912Z,35.40
2023-05-02T12:38:55.040Z,34.10
2023-05-02T12:41:32.834Z,34.48
2023-05-02T12:44:01.028Z,34.15
2023-05-02T12:46:31.793Z,33.73
2023-05-02T12:49:05.200Z,32.08
2023-05-02T12:51:33.142Z,32.12
2023-05-02T12:54:00.187Z,32.37
2023-05-02T12:56:32.845Z,32.22
2023-05-02T12:59:01.465Z,31.74
2023-05-02T13:01:28.944Z,32.61
2023-05-02T13:03:55.836Z,31.76
2023-05-02T13:06:22.699Z,32.78
2023-05-02T13:08:49.500Z,32.31
2023-05-02T13:11:16.257Z,32.99
2023-05-02T13:13:42.999Z,33.03
2023-05-02T13:16:09.821Z,29.96
2023-05-02T13:18:36.687Z,31.15
2023-05-02T13:21:04.972Z,31.52
2023-05-02T13:23:31.744Z,31.64
2023-05-02T13:25:58.988Z,31.41
2023-05-02T13:28:25.969Z,31.08
2023-05-02T13:30:52.892Z,32.86
2023-05-02T13:33:19.730Z,30.53
2023-05-02T13:35:46.607Z,31.16
2023-05-02T13:38:13.427Z,30.86
2023-05-02T13:40:40.095Z,31.15
2023-05-02T13:43:06.797Z,29.72
2023-05-02T13:45:33.847Z,31.30
2023-05-02T13:48:00.609Z,31.45
2023-05-02T13:50:27.404Z,32.76
2023-05-02T13:52:54.182Z,31.48
2023-05-02T13:55:21.093Z,31.14
2023-05-02T13:57:47.966Z,31.54
2023-05-02T14:00:14.961Z,31.06
2023-05-02T14:02:42.000Z,32.14
2023-05-02T14:05:09.117Z,31.61
2023-05-02T14:07:35.929Z,31.58
2023-05-02T14:10:02.877Z,32.25
2023-05-02T14:12:29.937Z,32.18
2023-05-02T14:14:56.683Z,31.62
2023-05-02T14:17:25.235Z,31.29
2023-05-02T14:19:52.125Z,31.54
2023-05-02T14:22:18.973Z,32.42
2023-05-02T14:24:45.822Z,32.39
2023-05-02T14:27:17.910Z,31.48
2023-05-02T14:29:45.939Z,32.82
2023-05-02T14:32:12.879Z,32.32
2023-05-02T14:34:40.507Z,33.34
2023-05-02T14:37:08.956Z,33.25
2023-05-02T14:39:36.914Z,33.00
2023-05-02T14:42:04.576Z,31.65
2023-05-02T14:44:32.014Z,32.08
2023-05-02T14:46:58.875Z,32.41
2023-05-02T14:49:25.792Z,31.09
2023-05-02T14:51:52.903Z,32.14
2023-05-02T14:54:20.458Z,31.61
2023-05-02T14:56:48.280Z,31.22
2023-05-02T14:59:15.204Z,32.59
2023-05-02T15:01:41.976Z,32.71
2023-05-02T15:04:09.080Z,31.63
2023-05-02T15:06:36.644Z,29.78
2023-05-02T15:09:04.801Z,30.59
2023-05-02T15:11:31.775Z,31.13
2023-05-02T15:13:59.557Z,31.76
2023-05-02T15:16:29.404Z,32.57
2023-05-02T15:18:56.232Z,31.22
2023-05-02T15:21:23.315Z,30.64
2023-05-02T15:23:50.142Z,31.48
2023-05-02T15:26:16.992Z,31.32
2023-05-02T15:28:43.816Z,32.29
2023-05-02T15:31:10.736Z,31.96
2023-05-02T15:33:37.719Z,32.54
2023-05-02T15:36:04.595Z,33.31
2023-05-02T15:38:31.307Z,33.75
2023-05-02T15:41:00.396Z,33.15
2023-05-02T15:43:27.639Z,32.66
2023-05-02T15:45:56.696Z,32.14
2023-05-02T15:48:26.711Z,32.63
2023-05-02T15:50:53.807Z,33.90
2023-05-02T15:53:23.985Z,33.97
2023-05-02T15:55:52.784Z,35.01
2023-05-02T15:58:19.816Z,34.96
2023-05-02T16:00:51.981Z,35.06
2023-05-02T16:03:19.102Z,34.36
2023-05-02T16:05:46.468Z,34.76
2023-05-02T16:08:13.931Z,33.76
2023-05-02T16:10:43.526Z,34.42
2023-05-02T16:13:10.650Z,35.41
2023-05-02T16:15:38.946Z,35.23
2023-05-02T16:18:06.018Z,35.84
2023-05-02T16:20:36.610Z,35.76
2023-05-02T16:23:04.201Z,37.10
2023-05-02T16:25:31.491Z,37.26
2023-05-02T16:27:58.329Z,39.59
2023-05-02T16:30:25.267Z,39.90
2023-05-02T16:32:52.040Z,40.17
2023-05-02T16:35:19.988Z,40.11
2023-05-02T16:37:47.575Z,41.07
2023-05-02T16:40:14.460Z,41.49
2023-05-02T16:42:41.505Z,41.48
2023-05-02T16:45:08.721Z,42.07
2023-05-02T16:47:36.261Z,42.69
2023-05-02T16:50:03.567Z,43.35
2023-05-02T16:52:30.969Z,43.46
2023-05-02T16:54:57.776Z,45.70
2023-05-02T16:57:24.545Z,45.88
2023-05-02T16:59:52.511Z,45.45
2023-05-02T17:02:22.772Z,46.53
2023-05-02T17:04:50.375Z,46.40
2023-05-02T17:07:17.618Z,45.70
2023-05-02T17:09:44.724Z,45.85
2023-05-02T17:12:12.497Z,46.77
2023-05-02T17:14:42.525Z,48.21
2023-05-02T17:17:10.034Z,48.92
2023-05-02T17:19:37.297Z,49.21
2023-05-02T17:22:05.152Z,49.02
2023-05-02T17:24:32.994Z,49.66
2023-05-02T17:27:00.908Z,49.53
2023-05-02T17:29:27.872Z,49.52
2023-05-02T17:31:57.340Z,49.55
2023-05-02T17:34:28.460Z,49.53
2023-05-02T17:36:55.948Z,51.06
2023-05-02T17:39:23.373Z,50.47
2023-05-02T17:41:50.409Z,53.14
2023-05-02T17:44:17.239Z,53.14
2023-05-02T17:46:44.026Z,52.07
2023-05-02T17:49:10.990Z,54.04
2023-05-02T17:51:37.837Z,54.87
2023-05-02T17:54:04.793Z,54.71
2023-05-02T17:56:34.468Z,55.04
2023-05-02T17:59:02.010Z,56.57
2023-05-02T18:01:28.776Z,58.35
2023-05-02T18:03:55.631Z,58.35
2023-05-02T18:06:22.748Z,57.77
2023-05-02T18:08:49.609Z,57.13
2023-05-02T18:11:18.306Z,57.27
2023-05-02T18:13:45.806Z,58.26
2023-05-02T18:16:14.123Z,58.17
2023-05-02T18:18:41.688Z,60.48
2023-05-02T18:21:12.028Z,61.63
2023-05-02T18:23:40.105Z,61.30
2023-05-02T18:26:13.186Z,61.77
2023-05-02T18:28:42.716Z,63.34
2023-05-02T18:31:17.544Z,64.71
2023-05-02T18:33:45.742Z,65.21
2023-05-02T18:36:13.585Z,66.46
2023-05-02T18:38:41.992Z,67.10
2023-05-02T18:41:09.400Z,68.37
2023-05-02T18:43:36.376Z,68.59
2023-05-02T18:46:03.313Z,68.75
2023-05-02T18:48:30.309Z,71.22
2023-05-02T18:50:57.632Z,72.03
2023-05-02T18:53:26.344Z,72.90
2023-05-02T18:55:56.438Z,74.94
2023-05-02T18:58:24.141Z,76.59
2023-05-02T19:00:51.670Z,77.48
2023-05-02T19:03:19.030Z,78.69
2023-05-02T19:05:45.918Z,79.27
2023-05-02T19:08:12.881Z,79.70
2023-05-02T19:10:40.124Z,81.14
2023-05-02T19:13:07.097Z,81.97
2023-05-02T19:15:34.195Z,82.71
2023-05-02T19:18:01.208Z,83.94
2023-05-02T19:20:29.438Z,84.32
2023-05-02T19:23:14.735Z,83.80
2023-05-02T19:25:44.099Z,86.74
2023-05-02T19:28:12.239Z,85.97
2023-05-02T19:30:43.042Z,86.55
2023-05-02T19:33:09.955Z,87.00
2023-05-02T19:35:36.870Z,86.05
2023-05-02T19:38:03.649Z,86.60
2023-05-02T19:40:31.034Z,87.28
2023-05-02T19:42:58.022Z,88.19
2023-05-02T19:45:24.972Z,87.03
2023-05-02T19:47:52.758Z,88.46
2023-05-02T19:50:19.824Z,90.04
2023-05-02T19:52:46.705Z,89.89
2023-05-02T19:55:13.796Z,90.70
2023-05-02T19:57:41.353Z,88.74
2023-05-02T20:00:08.710Z,88.70
2023-05-02T20:02:35.616Z,89.47
2023-05-02T20:05:02.369Z,88.98
2023-05-02T20:07:29.151Z,89.61
2023-05-02T20:09:56.312Z,89.13
2023-05-02T20:12:23.135Z,89.59
2023-05-02T20:14:49.977Z,89.75
2023-05-02T20:17:16.856Z,87.49
2023-05-02T20:19:45.311Z,86.66
2023-05-02T20:22:12.160Z,86.86
2023-05-02T20:24:39.006Z,87.11
2023-05-02T20:27:05.759Z,89.65
2023-05-02T20:29:32.622Z,84.87
2023-05-02T20:31:59.496Z,84.96
2023-05-02T20:34:26.791Z,86.63
2023-05-02T20:36:54.277Z,87.66
2023-05-02T20:39:22.116Z,88.73
2023-05-02T20:41:49.686Z,89.18
2023-05-02T20:44:17.599Z,89.37
2023-05-02T20:46:44.321Z,89.00
2023-05-02T20:49:11.205Z,90.24
2023-05-02T20:51:38.045Z,90.67
2023-05-02T20:54:05.171Z,90.57
2023-05-02T20:56:31.816Z,91.42
2023-05-02T20:58:58.631Z,90.82
2023-05-02T21:01:26.411Z,89.87
2023-05-02T21:03:53.306Z,90.40
2023-05-02T21:06:22.848Z,90.56
2023-05-02T21:08:49.844Z,91.05
2023-05-02T21:11:16.572Z,91.59
2023-05-02T21:13:43.808Z,91.43
2023-05-02T21:16:18.712Z,91.47
2023-05-02T21:18:48.836Z,91.88
2023-05-02T21:21:15.675Z,91.99
2023-05-02T21:23:42.355Z,91.69
2023-05-02T21:26:09.184Z,92.14
2023-05-02T21:28:37.986Z,92.25
2023-05-02T21:31:06.003Z,92.26
2023-05-02T21:33:32.768Z,92.38
2023-05-02T21:35:59.927Z,92.72
2023-05-02T21:38:26.971Z,92.66
2023-05-02T21:40:53.994Z,92.74
2023-05-02T21:43:20.922Z,93.10
2023-05-02T21:45:49.474Z,93.38
2023-05-02T21:48:17.109Z,93.12
2023-05-02T21:50:44.857Z,92.30
2023-05-02T21:53:13.692Z,92.92
2023-05-02T21:55:41.089Z,92.74
2023-05-02T21:58:09.527Z,92.88
2023-05-02T22:00:41.022Z,92.72
2023-05-02T22:03:11.565Z,92.99
2023-05-02T22:05:41.841Z,93.33
2023-05-02T22:08:13.375Z,93.30
2023-05-02T22:10:42.480Z,92.75
2023-05-02T22:13:14.248Z,91.95
2023-05-02T22:15:47.810Z,91.79
2023-05-02T22:18:15.827Z,92.20
2023-05-02T22:20:44.102Z,94.32
2023-05-02T22:23:11.596Z,93.63
2023-05-02T22:25:41.382Z,92.46
2023-05-02T22:28:11.357Z,93.18
2023-05-02T22:30:39.515Z,92.99
2023-05-02T22:33:07.405Z,91.37
2023-05-02T22:35:34.375Z,90.78
2023-05-02T22:38:02.294Z,89.62
2023-05-02T22:40:32.977Z,90.66
2023-05-02T22:43:00.895Z,90.97
2023-05-02T22:45:27.929Z,91.43
2023-05-02T22:47:55.791Z,91.40
2023-05-02T22:50:22.628Z,91.53
2023-05-02T22:52:49.506Z,92.43
2023-05-02T22:55:16.368Z,91.92
2023-05-02T22:57:43.350Z,92.58
2023-05-02T23:00:11.093Z,92.49
2023-05-02T23:02:38.277Z,93.37
2023-05-02T23:05:06.479Z,94.20
2023-05-02T23:07:33.358Z,94.24
2023-05-02T23:10:01.089Z,93.92
2023-05-02T23:12:29.001Z,94.75
2023-05-02T23:14:55.860Z,93.95
2023-05-02T23:17:23.230Z,94.64
2023-05-02T23:19:50.526Z,95.65
2023-05-02T23:22:17.446Z,96.13
2023-05-02T23:24:46.339Z,95.59
2023-05-02T23:27:13.170Z,96.39
2023-05-02T23:29:39.990Z,95.59
2023-05-02T23:32:08.064Z,95.68
2023-05-02T23:34:38.335Z,95.18
2023-05-02T23:37:06.948Z,95.65
2023-05-02T23:39:34.411Z,95.71
2023-05-02T23:42:03.526Z,95.82
2023-05-02T23:44:31.285Z,95.80
2023-05-02T23:47:01.458Z,96.17
2023-05-02T23:49:28.395Z,95.93
2023-05-02T23:51:55.139Z,95.91
2023-05-02T23:54:22.055Z,96.53
2023-05-02T23:56:48.811Z,96.43
2023-05-02T23:59:15.680Z,96.28
